Dauntless Aviation
Airports North America United States Colorado
98CO

NCMC HELIPORT

GREELEY, CO, USA

Airport Info
Suggest Updated Information for this Airport

Location

Latitude / Longitude: 40°24'53"N / 104°42'28"W
  40°24.9'N / 104°42.4667'W
  40.4150 / -104.7078
Elevation: 4882 ft. (estimated)
Variation: 12E (1985)
From city: 00 miles N of GREELEY, CO

Operations

Facility use: Private
Sectional chart: DENVER
Control tower: no
Boundary ARTCC: DENVER
FSS: DENVER [1-800-WX-BRIEF]
Segmented circle: no

Communications

Nearby radio navigation aids

VOR radial/distance VOR name Freq Var
GLL 233oT/8.9 GILL VORTAC 114.20 13E
DVV 353oT/31.5 MILE HIGH VORTAC 114.70 11E
BJC 33oT/36.1 JEFFCO VOR/DME 115.40 11E
DEN 357oT/36.2 DENVER VOR/DME 117.90 11E
 
NDB name Hdg/Dist Freq Var ID

Services

Runway Information

Helipad H1

Dimensions: 40 x 40 ft.
Surface: PORTLAND CEMENT CONCRETE,NO SPECIAL SURFACE TREATMENT
 

Additional Remarks

Instrument Procedures

No published instrument procedures available
Topographic chart at:
Satellite photo at:
Airport distance calculator
From:
Weather Reports

METAR

KGXY
4.2nm NE
KGXY 271155Z AUTO 34019KT 10SM FEW120 10/04 A2982 RMK AO1 70022 10100 20090 57014
KFNL
14.3nm W
KFNL 271155Z AUTO 34008KT 10SM CLR 09/03 A2987 RMK AO1 70009 10100 20080 57003
KLMO
25.8nm SW
KLMO 271154Z AUTO 34007KT 10SM OVC100 12/04 A2987 RMK AO2 T01210042
KEIK
28.6nm S
KEIK 271155Z AUTO 35009KT 10SM SCT110 10/05 A2985 RMK AO2 T00990050 10099 20080
KDEN
35.0nm SE
KDEN 271153Z 31019G24KT 10SM SCT070 SCT085 BKN130 09/06 A2983 RMK AO2 RAB04E13 SLP071 VCSH P0000 60018 70133 T00890061 10089 20072 56012 $
KBJC
35.3nm S
KBJC 271155Z AUTO 32009G17KT 10SM SCT100 10/05 A2987 RMK AO2

TAF

KDEN
35.0nm SE
KDEN 271151Z 2712/2818 32014G21KT P6SM VCSH SCT050 BKN070 FM271600 36014G22KT P6SM VCSH SCT060 BKN080 TEMPO 2717/2721 -SHRA BKN050 FM272100 03012KT P6SM VCSH SCT060 BKN080 FM280100 VRB06KT P6SM FEW060 BKN100 FM280400 20007KT P6SM FEW060 BKN200
KBJC
35.3nm S
KBJC 271131Z 2712/2812 36010KT P6SM SCT060 BKN100 FM271700 03011KT P6SM VCSH SCT050 BKN070 TEMPO 2718/2722 -SHRA OVC050 FM280000 VRB06KT P6SM SCT040 BKN100 FM280300 27006KT P6SM FEW060 BKN200
Safelog

 

Dauntless Aviation

© 2007-2016 Dauntless Aviation, all rights reserved
Information provided via PilotNav comes from a variety of official and unofficial data sources. As errors are possible, do not use PilotNav for primary flight planning purposes. Verify any information that you receive via PilotNav with current and canonical charts and other official documents. The material in this database is subject to database copyrights held by Dauntless Aviation and may not be copied without the express permission of Dauntless Aviation - licenses for use of part of all of this data are available for purchase; enquire via the Dauntless Aviation helpdesk. A number of mechanisms and markers exist in the database to protect against and identify infringement / copyright. Automated queries against this website are stictly prohibited, and all activity is logged and analyzed.